Terminal Aerodrome Forecast
Issued by NWS

Home | Current Version | Previous Version | Text Only | Print | Product List | Glossary On
Versions: 1 2 3 4 5 6 7 8 9 10 11 12 13 14 15 16
769
FTUS43 KGRR 251142
TAFBTL
TAF
KBTL 251142Z 2512/2612 25009KT 6SM -RA BKN050
     FM251500 28009KT P6SM VCTS BKN035CB
     FM252100 27009KT P6SM SCT040 BKN150=

USA.gov is the U.S. government's official web portal to all federal, state and local government web resources and services.